Time;durP1;ratioP1;P1;durP2;ratioP2;P2;SDS_P1;SDS_P2;PMS_P1;PMS_P2;Temp;Humidity;BMP_temperature;BMP_pressure;BME280_temperature;BME280_humidity;BME280_pressure;Samples;Min_cycle;Max_cycle;Signal;HPM_P1;HPM_P2
2022/09/16 00:01:22;;;;;;;1.35;0.85;;;18.90;99.90;;;;;;6181852;23;20084;-75
2022/09/16 00:03:48;;;;;;;0.70;0.68;;;;;;;;;;6181883;23;20005;-75
2022/09/16 00:06:25;;;;;;;1.10;1.00;;;19.00;99.90;;;;;;6181827;23;20440;-75
2022/09/16 00:08:51;;;;;;;1.58;1.02;;;;;;;;;;6181681;23;20409;-75
2022/09/16 00:11:18;;;;;;;0.95;0.88;;;18.90;99.90;;;;;;6181923;23;19997;-75
2022/09/16 00:13:44;;;;;;;1.00;0.90;;;18.90;99.90;;;;;;6182284;23;20034;-75
2022/09/16 00:16:15;;;;;;;2.07;1.50;;;19.00;99.90;;;;;;6181523;23;20001;-75
2022/09/16 00:18:41;;;;;;;1.58;1.15;;;18.70;99.90;;;;;;6181539;23;20681;-76
2022/09/16 00:21:08;;;;;;;1.48;1.08;;;18.80;99.90;;;;;;6182233;23;20079;-75
2022/09/16 00:23:34;;;;;;;1.40;0.98;;;;;;;;;;6181666;23;20365;-75
2022/09/16 00:26:00;;;;;;;2.03;1.30;;;;;;;;;;6181927;23;20055;-76
2022/09/16 00:28:26;;;;;;;2.10;1.73;;;;;;;;;;6181716;23;20066;-75
2022/09/16 00:30:53;;;;;;;1.40;1.10;;;;;;;;;;6181874;23;20008;-75
2022/09/16 00:33:19;;;;;;;1.13;1.02;;;;;;;;;;6181465;23;20008;-75
2022/09/16 00:35:45;;;;;;;2.53;1.13;;;;;;;;;;6182243;23;19997;-75
2022/09/16 00:38:12;;;;;;;2.50;1.40;;;18.40;99.90;;;;;;6181878;23;20001;-75
2022/09/16 00:40:46;;;;;;;2.25;1.50;;;18.70;99.90;;;;;;6182092;23;20008;-75
2022/09/16 00:43:14;;;;;;;3.83;1.10;;;18.70;99.90;;;;;;6181843;23;20001;-75
2022/09/16 00:45:40;;;;;;;2.33;1.30;;;;;;;;;;6181385;23;20001;-75
2022/09/16 00:48:13;;;;;;;2.15;1.20;;;18.70;99.90;;;;;;6181536;23;20017;-76
2022/09/16 00:50:50;;;;;;;1.70;1.15;;;19.00;99.90;;;;;;6181646;23;20031;-75
2022/09/16 00:53:23;;;;;;;1.15;0.98;;;18.90;99.90;;;;;;6181566;23;20001;-75
2022/09/16 00:55:52;;;;;;;1.10;1.00;;;18.90;99.90;;;;;;6181518;23;20383;-75
2022/09/16 00:58:40;;;;;;;1.52;1.13;;;18.80;99.90;;;;;;6181622;23;20024;-75
2022/09/16 01:01:06;;;;;;;1.80;1.35;;;18.90;99.90;;;;;;6181551;23;20081;-75
2022/09/16 01:03:50;;;;;;;2.20;1.35;;;19.10;99.90;;;;;;6155199;23;20005;-75
2022/09/16 01:06:18;;;;;;;2.85;1.65;;;18.90;99.90;;;;;;6155117;23;20013;-75
2022/09/16 01:08:44;;;;;;;;;;;18.90;99.90;;;;;;6182117;23;20400;-75
2022/09/16 01:11:09;;;;;;;1.42;1.33;;;18.50;99.90;;;;;;6181782;23;19907;-75
2022/09/16 01:13:35;;;;;;;2.67;2.03;;;;;;;;;;6181580;23;20005;-75
2022/09/16 01:16:19;;;;;;;4.50;1.60;;;18.40;99.90;;;;;;6181046;23;19997;-75
2022/09/16 01:19:30;;;;;;;3.28;1.70;;;18.30;99.90;;;;;;6155135;23;20009;-75
2022/09/16 01:22:13;;;;;;;4.65;1.42;;;18.40;99.90;;;;;;6181368;23;20001;-75
2022/09/16 01:24:45;;;;;;;3.38;1.30;;;18.70;99.90;;;;;;6181471;23;20005;-75
2022/09/16 01:27:44;;;;;;;1.95;1.60;;;18.10;99.90;;;;;;6181513;23;20507;-75
2022/09/16 01:30:31;;;;;;;3.97;2.17;;;17.90;99.90;;;;;;6181330;23;20075;-75
2022/09/16 01:32:57;;;;;;;2.60;1.70;;;;;;;;;;6181489;23;20001;-75
2022/09/16 01:35:48;;;;;;;2.92;1.50;;;18.10;99.90;;;;;;6181641;23;20100;-75
2022/09/16 01:38:37;;;;;;;3.10;1.70;;;17.90;99.90;;;;;;6181201;23;20452;-75
2022/09/16 01:41:32;;;;;;;3.17;1.92;;;18.30;99.90;;;;;;6183085;23;20052;-75
2022/09/16 01:43:58;;;;;;;2.63;1.60;;;;;;;;;;6183316;23;20118;-75
2022/09/16 01:46:35;;;;;;;3.78;1.80;;;18.30;99.90;;;;;;6182448;23;20009;-75
2022/09/16 01:49:14;;;;;;;;;;;18.50;99.90;;;;;;6183948;23;20377;-76
2022/09/16 01:52:05;;;;;;;6.93;1.98;;;18.40;99.90;;;;;;6183146;23;20332;-74
2022/09/16 01:54:40;;;;;;;3.35;1.30;;;18.30;99.90;;;;;;6183089;23;20336;-75
2022/09/16 01:57:33;;;;;;;2.28;1.40;;;18.70;99.90;;;;;;6183352;23;20017;-75
2022/09/16 02:00:10;;;;;;;3.42;1.88;;;18.40;99.90;;;;;;6182916;23;20016;-75
2022/09/16 02:02:44;;;;;;;2.60;1.48;;;18.50;99.90;;;;;;6182966;23;20504;-75
2022/09/16 02:05:27;;;;;;;1.60;1.50;;;18.50;99.90;;;;;;6183250;23;20005;-75
2022/09/16 02:08:02;;;;;;;4.50;2.08;;;18.10;99.90;;;;;;6182976;23;20024;-75
2022/09/16 02:10:42;;;;;;;3.60;2.13;;;18.40;99.90;;;;;;6183271;23;20004;-75
2022/09/16 02:13:25;;;;;;;2.33;1.77;;;18.40;99.90;;;;;;6183458;23;20055;-76
2022/09/16 02:15:52;;;;;;;2.55;1.55;;;18.30;99.90;;;;;;6182848;23;20032;-75
2022/09/16 02:18:22;;;;;;;;;;;18.30;99.90;;;;;;6183599;23;20005;-75
2022/09/16 02:20:51;;;;;;;6.35;1.90;;;18.10;99.90;;;;;;6183279;23;19907;-75
2022/09/16 02:23:26;;;;;;;2.10;1.63;;;18.00;99.90;;;;;;6183199;23;20032;-75
2022/09/16 02:25:53;;;;;;;3.70;1.55;;;18.30;99.90;;;;;;6183407;23;20032;-75
2022/09/16 02:28:22;;;;;;;;;;;18.30;99.90;;;;;;6183185;23;20044;-75
2022/09/16 02:30:52;;;;;;;2.17;1.48;;;18.40;99.90;;;;;;6182949;23;19904;-75
2022/09/16 02:33:19;;;;;;;2.72;1.45;;;18.70;99.90;;;;;;6182603;23;20051;-75
2022/09/16 02:35:48;;;;;;;4.30;1.77;;;18.30;99.90;;;;;;6183018;23;20460;-75
2022/09/16 02:38:19;;;;;;;2.42;1.73;;;18.00;99.90;;;;;;6156350;23;20352;-75
2022/09/16 02:41:00;;;;;;;2.30;1.52;;;18.20;99.90;;;;;;6156465;23;20037;-75
2022/09/16 02:43:27;;;;;;;2.85;1.55;;;18.10;99.90;;;;;;6182403;23;20009;-75
2022/09/16 02:46:20;;;;;;;2.17;1.45;;;18.10;99.90;;;;;;6182617;23;20458;-75
2022/09/16 02:48:48;;;;;;;2.00;1.75;;;17.90;99.90;;;;;;6182648;23;20359;-75
2022/09/16 02:51:28;;;;;;;3.25;1.60;;;17.80;99.90;;;;;;6182491;23;20115;-75
2022/09/16 02:54:32;;;;;;;4.05;1.77;;;17.90;99.90;;;;;;6182985;23;20439;-75
2022/09/16 02:56:59;;;;;;;3.80;1.50;;;;;;;;;;6181571;23;20032;-75
2022/09/16 02:59:25;;;;;;;3.75;1.80;;;;;;;;;;6182392;23;20047;-75
2022/09/16 03:01:51;;;;;;;1.40;1.30;;;;;;;;;;6182541;23;20008;-75
2022/09/16 03:04:18;;;;;;;3.50;1.58;;;17.90;99.90;;;;;;6182611;23;20019;-75
2022/09/16 03:06:45;;;;;;;5.15;1.58;;;17.90;99.90;;;;;;6182532;23;20012;-76
2022/09/16 03:09:13;;;;;;;1.92;1.70;;;17.80;99.90;;;;;;6182719;23;20005;-76
2022/09/16 03:12:01;;;;;;;4.38;2.28;;;17.90;99.90;;;;;;6182170;23;20072;-75
2022/09/16 03:14:52;;;;;;;3.15;1.73;;;17.60;99.90;;;;;;6181849;23;20009;-76
2022/09/16 03:17:39;;;;;;;5.72;1.50;;;17.50;99.90;;;;;;6182686;23;20005;-75
2022/09/16 03:20:15;;;;;;;;;;;17.50;99.90;;;;;;6183093;23;20012;-75
2022/09/16 03:23:05;;;;;;;2.10;1.40;;;17.10;99.90;;;;;;6182529;23;20473;-76
2022/09/16 03:25:42;;;;;;;1.95;1.52;;;17.30;99.90;;;;;;6182234;23;20068;-75
2022/09/16 03:28:14;;;;;;;;;;;17.20;99.90;;;;;;6182599;23;20017;-76
2022/09/16 03:31:04;;;;;;;5.47;1.70;;;17.10;99.90;;;;;;6182429;23;20354;-75
2022/09/16 03:33:52;;;;;;;4.00;1.50;;;17.10;99.90;;;;;;6168834;23;20076;-76
2022/09/16 03:36:22;;;;;;;2.30;1.80;;;17.30;99.90;;;;;;6182445;23;20009;-75
2022/09/16 03:38:48;;;;;;;5.45;2.10;;;;;;;;;;6182081;23;20013;-75
2022/09/16 03:41:15;;;;;;;1.77;1.30;;;17.10;99.90;;;;;;6181851;23;20448;-74
2022/09/16 03:43:54;;;;;;;2.25;1.63;;;17.10;99.90;;;;;;6182185;23;20009;-75
2022/09/16 03:46:20;;;;;;;2.95;1.95;;;17.10;99.90;;;;;;6181649;23;20005;-76
2022/09/16 03:48:46;;;;;;;3.88;2.00;;;;;;;;;;6181932;23;20490;-75
2022/09/16 03:51:12;;;;;;;4.82;1.65;;;;;;;;;;6182092;23;20004;-75
2022/09/16 03:53:38;;;;;;;1.83;1.42;;;;;;;;;;6181962;23;20352;-75
2022/09/16 03:56:04;;;;;;;4.93;2.28;;;;;;;;;;6181929;23;20009;-74
2022/09/16 03:58:30;;;;;;;1.63;1.38;;;;;;;;;;6182066;23;20072;-74
2022/09/16 04:00:56;;;;;;;1.95;1.40;;;17.20;99.90;;;;;;6182188;23;20033;-75
2022/09/16 04:03:22;;;;;;;2.63;1.85;;;;;;;;;;6181867;23;20009;-75
2022/09/16 04:05:55;;;;;;;1.30;1.20;;;16.80;99.90;;;;;;6182265;23;20439;-75
2022/09/16 04:08:21;;;;;;;3.42;2.08;;;;;;;;;;6182017;23;20044;-75
2022/09/16 04:11:01;;;;;;;6.35;1.60;;;16.60;99.90;;;;;;6182090;23;20008;-75
2022/09/16 04:13:32;;;;;;;5.40;2.03;;;16.80;99.90;;;;;;6181837;23;20001;-75
2022/09/16 04:15:58;;;;;;;4.97;2.40;;;16.60;99.90;;;;;;6181216;23;20429;-74
2022/09/16 04:18:24;;;;;;;2.15;1.90;;;;;;;;;;6182113;23;20463;-74
2022/09/16 04:20:49;;;;;;;2.00;1.77;;;16.80;99.90;;;;;;6181656;23;20028;-74
2022/09/16 04:23:15;;;;;;;2.63;1.73;;;;;;;;;;6181719;23;20375;-74
2022/09/16 04:25:41;;;;;;;8.82;1.92;;;;;;;;;;6181404;23;20055;-75
2022/09/16 04:28:07;;;;;;;3.33;2.13;;;16.80;99.90;;;;;;6181795;23;20013;-74
2022/09/16 04:30:33;;;;;;;3.58;2.40;;;;;;;;;;6181695;23;20356;-75
2022/09/16 04:32:59;;;;;;;3.70;2.03;;;;;;;;;;6181832;23;20517;-74
2022/09/16 04:35:25;;;;;;;2.63;1.92;;;;;;;;;;6181647;23;20032;-74
2022/09/16 04:37:51;;;;;;;4.43;2.40;;;16.60;99.90;;;;;;6181897;23;20000;-75
2022/09/16 04:40:18;;;;;;;6.97;2.10;;;16.30;99.90;;;;;;6181664;23;20005;-75
2022/09/16 04:42:50;;;;;;;4.35;2.17;;;16.20;99.90;;;;;;6181481;23;20020;-74
2022/09/16 04:45:16;;;;;;;6.03;1.77;;;16.40;99.90;;;;;;6181418;23;20314;-74
2022/09/16 04:47:42;;;;;;;9.50;2.08;;;16.90;99.90;;;;;;6182021;23;20009;-75
2022/09/16 04:50:08;;;;;;;3.58;2.10;;;16.80;99.90;;;;;;6181958;23;20009;-74
2022/09/16 04:52:34;;;;;;;2.33;1.75;;;16.60;99.90;;;;;;6182002;23;20040;-74
2022/09/16 04:54:59;;;;;;;2.63;2.17;;;16.20;99.90;;;;;;6181317;23;20032;-74
2022/09/16 04:57:28;;;;;;;4.07;1.45;;;16.20;99.90;;;;;;6181759;23;20027;-75
2022/09/16 04:59:54;;;;;;;5.15;2.15;;;16.10;99.90;;;;;;6181417;23;20001;-74
2022/09/16 05:02:19;;;;;;;8.27;2.10;;;16.10;99.90;;;;;;6181563;23;20001;-74
2022/09/16 05:04:45;;;;;;;4.95;1.80;;;15.60;99.90;;;;;;6181558;23;20051;-74
2022/09/16 05:07:11;;;;;;;3.28;2.70;;;;;;;;;;6181678;23;20001;-75
2022/09/16 05:09:37;;;;;;;7.05;2.45;;;;;;;;;;6180127;23;20127;-74
2022/09/16 05:12:03;;;;;;;2.67;2.30;;;;;;;;;;6181637;23;20076;-74
2022/09/16 05:14:29;;;;;;;4.13;2.60;;;;;;;;;;6154771;23;20005;-74
2022/09/16 05:16:56;;;;;;;5.78;2.08;;;;;;;;;;6183689;23;20033;-74
2022/09/16 05:19:21;;;;;;;4.13;1.88;;;15.80;99.90;;;;;;6180441;23;20502;-79
2022/09/16 05:21:47;;;;;;;6.25;2.15;;;;;;;;;;6154078;23;20028;-80
2022/09/16 05:24:14;;;;;;;4.10;2.20;;;;;;;;;;6181186;23;20344;-80
2022/09/16 05:26:41;;;;;;;3.72;1.77;;;15.90;99.90;;;;;;6182071;23;20001;-79
2022/09/16 05:29:10;;;;;;;6.15;1.77;;;15.90;99.90;;;;;;6155250;23;20560;-79
2022/09/16 05:31:38;;;;;;;10.23;2.53;;;15.80;99.90;;;;;;6180571;23;20009;-80
2022/09/16 05:34:09;;;;;;;4.72;2.22;;;15.80;99.90;;;;;;6152748;23;20581;-80
2022/09/16 05:36:37;;;;;;;3.88;2.67;;;;;;;;;;6153720;23;20001;-78
2022/09/16 05:39:04;;;;;;;5.28;2.40;;;;;;;;;;6180948;23;20029;-78
2022/09/16 05:41:30;;;;;;;3.38;2.28;;;;;;;;;;6179851;23;20546;-78
2022/09/16 05:43:59;;;;;;;5.00;2.70;;;15.60;99.90;;;;;;6180718;23;20069;-79
2022/09/16 05:46:26;;;;;;;4.00;1.80;;;;;;;;;;6180302;23;20088;-79
2022/09/16 05:48:52;;;;;;;3.17;2.20;;;;;;;;;;6180036;23;20020;-77
2022/09/16 05:51:20;;;;;;;6.95;2.08;;;15.90;99.90;;;;;;6178956;23;20009;-75
2022/09/16 05:53:47;;;;;;;3.50;2.75;;;15.90;99.90;;;;;;6181619;23;20009;-77
2022/09/16 05:56:17;;;;;;;7.57;2.55;;;15.90;99.90;;;;;;6181147;23;20016;-82
2022/09/16 05:58:43;;;;;;;3.83;2.10;;;16.00;99.90;;;;;;6181166;23;20001;-82
2022/09/16 06:01:20;;;;;;;2.85;2.13;;;16.00;99.90;;;;;;6181924;23;20035;-77
2022/09/16 06:03:48;;;;;;;5.25;2.30;;;16.10;99.90;;;;;;6154984;23;20080;-76
2022/09/16 06:06:14;;;;;;;4.32;2.50;;;;;;;;;;6181649;23;20001;-76
2022/09/16 06:08:40;;;;;;;4.25;2.40;;;15.90;99.90;;;;;;6181480;23;20020;-76
2022/09/16 06:11:09;;;;;;;5.60;2.33;;;16.20;99.90;;;;;;6181512;23;20001;-76
2022/09/16 06:13:35;;;;;;;3.55;2.50;;;;;;;;;;6181822;23;20527;-76
2022/09/16 06:16:02;;;;;;;5.43;2.72;;;18.60;99.90;;;;;;6181241;23;20340;-77
2022/09/16 06:18:29;;;;;;;8.50;3.67;;;21.90;96.50;;;;;;6181963;23;20083;-77
2022/09/16 06:20:55;;;;;;;8.93;2.13;;;23.40;93.80;;;;;;6180784;23;20084;-77
2022/09/16 06:23:22;;;;;;;2.22;2.03;;;24.80;95.10;;;;;;6182133;23;20005;-77
2022/09/16 06:25:48;;;;;;;3.30;2.33;;;;;;;;;;6177213;23;20371;-77
2022/09/16 06:28:14;;;;;;;4.80;1.80;;;;;;;;;;6171534;23;20452;-80
2022/09/16 06:30:40;;;;;;;6.30;1.95;;;25.40;83.60;;;;;;6178048;23;20001;-78
2022/09/16 06:33:08;;;;;;;3.92;1.60;;;;;;;;;;6178224;23;20447;-78
2022/09/16 06:35:34;;;;;;;6.38;1.60;;;28.80;73.60;;;;;;6178111;23;20012;-78
2022/09/16 06:38:00;;;;;;;8.70;1.83;;;;;;;;;;6179668;23;20009;-79
2022/09/16 06:40:26;;;;;;;6.80;2.05;;;32.70;63.80;;;;;;6176153;23;20671;-78
2022/09/16 06:42:53;;;;;;;5.47;1.67;;;34.20;63.30;;;;;;6178362;23;20063;-78
2022/09/16 06:45:19;;;;;;;2.15;1.77;;;36.20;55.10;;;;;;6177708;23;20015;-78
2022/09/16 06:47:45;;;;;;;6.28;2.05;;;37.40;52.80;;;;;;6177974;23;20017;-78
2022/09/16 06:50:11;;;;;;;4.67;1.40;;;;;;;;;;6177296;23;20081;-78
2022/09/16 06:52:37;;;;;;;3.45;1.50;;;;;;;;;;6176162;23;20009;-78
2022/09/16 06:55:03;;;;;;;7.20;1.48;;;;;;;;;;6178899;23;20005;-78
2022/09/16 06:57:29;;;;;;;3.17;1.40;;;41.80;44.60;;;;;;6177521;23;20242;-78
2022/09/16 06:59:55;;;;;;;2.67;1.58;;;;;;;;;;6173308;23;20009;-77
2022/09/16 07:02:22;;;;;;;3.53;1.38;;;43.70;41.30;;;;;;6145866;23;20025;-77
2022/09/16 07:04:48;;;;;;;10.80;2.30;;;;;;;;;;6178305;23;20009;-78
2022/09/16 07:07:14;;;;;;;;;;;44.10;38.00;;;;;;6179273;23;20444;-79
2022/09/16 07:09:40;;;;;;;3.45;1.60;;;;;;;;;;6179385;23;19904;-78
2022/09/16 07:12:06;;;;;;;;;;;45.60;36.90;;;;;;6168720;23;20009;-78
2022/09/16 07:14:32;;;;;;;3.05;1.15;;;47.40;40.30;;;;;;6178476;23;20340;-79
2022/09/16 07:16:59;;;;;;;1.90;1.55;;;47.80;38.30;;;;;;6171014;23;20008;-78
2022/09/16 07:19:25;;;;;;;3.08;1.75;;;48.50;36.30;;;;;;6177948;23;20417;-79
2022/09/16 07:21:51;;;;;;;4.00;1.42;;;;;;;;;;6173909;23;20032;-79
2022/09/16 07:24:17;;;;;;;4.00;1.42;;;;;;;;;;6178245;23;20005;-79
2022/09/16 07:26:43;;;;;;;1.75;1.40;;;50.10;32.40;;;;;;6178474;23;20005;-79
2022/09/16 07:29:14;;;;;;;2.42;1.52;;;50.10;31.60;;;;;;6179089;23;20020;-79
2022/09/16 07:31:41;;;;;;;1.38;1.10;;;50.90;30.00;;;;;;6172468;23;20025;-79
2022/09/16 07:34:09;;;;;;;2.05;1.30;;;50.40;29.90;;;;;;6178778;23;20009;-79
2022/09/16 07:36:43;;;;;;;1.48;1.38;;;50.80;29.40;;;;;;6178157;23;20048;-79
2022/09/16 07:39:10;;;;;;;1.45;1.05;;;50.60;31.30;;;;;;6178825;23;20019;-79
2022/09/16 07:41:39;;;;;;;1.70;1.05;;;51.20;28.90;;;;;;6173996;23;20425;-79
2022/09/16 07:44:06;;;;;;;2.08;0.93;;;51.20;28.70;;;;;;6178838;23;20005;-79
2022/09/16 07:46:33;;;;;;;2.05;1.40;;;52.10;34.80;;;;;;6178766;23;20028;-79
2022/09/16 07:49:01;;;;;;;5.07;1.33;;;51.70;28.10;;;;;;6177806;23;20088;-78
2022/09/16 07:51:28;;;;;;;1.42;1.33;;;52.10;28.10;;;;;;6171562;23;20436;-79
2022/09/16 07:53:57;;;;;;;1.45;1.35;;;51.80;31.70;;;;;;6177934;23;20009;-79
2022/09/16 07:56:24;;;;;;;1.95;1.30;;;;;;;;;;6178101;23;20040;-79
2022/09/16 07:58:52;;;;;;;5.72;1.50;;;44.20;29.50;;;;;;6178597;23;20005;-78
2022/09/16 08:01:18;;;;;;;1.73;1.17;;;;;;;;;;6171932;23;20011;-78
2022/09/16 08:03:45;;;;;;;1.83;1.15;;;46.10;30.60;;;;;;6176886;23;20546;-78
2022/09/16 08:06:17;;;;;;;1.48;1.30;;;48.90;28.60;;;;;;6178662;23;20005;-79
2022/09/16 08:08:43;;;;;;;4.80;1.38;;;50.40;28.70;;;;;;6178383;23;20009;-76
2022/09/16 08:11:11;;;;;;;1.65;1.10;;;49.70;27.40;;;;;;6171680;23;20004;-79
2022/09/16 08:13:37;;;;;;;1.98;1.13;;;51.00;27.20;;;;;;6177589;23;20344;-79
2022/09/16 08:16:09;;;;;;;3.00;1.42;;;52.10;26.60;;;;;;6177723;23;20005;-80
2022/09/16 08:18:35;;;;;;;2.63;1.30;;;;;;;;;;6177340;23;20001;-79
2022/09/16 08:21:09;;;;;;;2.08;1.05;;;50.20;29.70;;;;;;6171598;23;20015;-79
2022/09/16 08:23:36;;;;;;;2.90;0.95;;;;;;;;;;6178001;23;20020;-79
2022/09/16 08:26:02;;;;;;;2.83;0.98;;;39.80;38.20;;;;;;6177959;23;20351;-78
2022/09/16 08:28:28;;;;;;;2.45;1.23;;;36.50;32.80;;;;;;6177681;23;20012;-78
2022/09/16 08:30:54;;;;;;;2.88;1.15;;;34.30;37.10;;;;;;6171432;23;20015;-78
2022/09/16 08:33:23;;;;;;;3.95;1.33;;;;;;;;;;6177006;23;20398;-78
2022/09/16 08:36:05;;;;;;;6.75;1.10;;;35.40;34.40;;;;;;6178819;23;20008;-78
2022/09/16 08:38:31;;;;;;;2.50;1.00;;;34.80;34.90;;;;;;6177639;23;20632;-79
2022/09/16 08:40:59;;;;;;;;;;;34.80;35.40;;;;;;6171764;23;20052;-78
2022/09/16 08:43:37;;;;;;;3.60;1.10;;;30.50;39.30;;;;;;6176890;23;19994;-78
2022/09/16 08:46:15;;;;;;;2.38;1.35;;;29.70;42.00;;;;;;6171462;23;20001;-79
2022/09/16 08:49:14;;;;;;;2.33;1.50;;;32.70;40.50;;;;;;6178209;23;20021;-78
2022/09/16 08:51:40;;;;;;;1.67;1.10;;;34.70;37.60;;;;;;6182063;23;20001;-78
2022/09/16 08:54:11;;;;;;;2.20;1.17;;;32.10;46.90;;;;;;6181771;23;20105;-78
2022/09/16 08:56:39;;;;;;;2.45;1.10;;;29.90;51.00;;;;;;6182213;23;20024;-78
2022/09/16 08:59:12;;;;;;;2.33;1.30;;;28.20;43.30;;;;;;6182715;23;20056;-77
2022/09/16 09:01:59;;;;;;;2.50;1.20;;;26.90;55.30;;;;;;6181245;23;20072;-77
2022/09/16 09:04:25;;;;;;;2.38;2.22;;;30.90;43.00;;;;;;6182857;23;20408;-78
2022/09/16 09:07:03;;;;;;;2.67;1.50;;;;;;;;;;6181942;23;20025;-78
2022/09/16 09:09:57;;;;;;;5.25;1.63;;;42.40;36.10;;;;;;6175703;23;20016;-80
2022/09/16 09:12:38;;;;;;;2.08;1.20;;;45.90;29.90;;;;;;6181711;23;20008;-78
2022/09/16 09:15:29;;;;;;;2.63;1.13;;;43.30;29.70;;;;;;6180957;23;20071;-77
2022/09/16 09:18:30;;;;;;;1.42;0.73;;;41.70;30.40;;;;;;6181940;23;20076;-75
2022/09/16 09:20:56;;;;;;;1.67;0.60;;;;;;;;;;6161071;23;20322;-77
2022/09/16 09:23:49;;;;;;;3.03;0.73;;;33.60;46.20;;;;;;6182164;23;20016;-76
2022/09/16 09:26:15;;;;;;;1.92;1.20;;;;;;;;;;6182177;23;20009;-76
2022/09/16 09:29:18;;;;;;;2.00;0.85;;;27.50;43.30;;;;;;6154960;23;20087;-77
2022/09/16 09:31:47;;;;;;;6.70;1.33;;;26.10;52.60;;;;;;6182059;23;20005;-78
2022/09/16 09:34:31;;;;;;;1.13;0.80;;;25.10;47.00;;;;;;6182057;23;20005;-77
2022/09/16 09:37:19;;;;;;;1.98;1.23;;;24.70;59.90;;;;;;6181563;23;20592;-77
2022/09/16 09:40:03;;;;;;;6.30;2.05;;;29.20;45.50;;;;;;6181487;23;20052;-77
2022/09/16 09:42:56;;;;;;;1.98;1.15;;;35.20;38.50;;;;;;6182128;23;20519;-77
2022/09/16 09:45:35;;;;;;;1.73;1.15;;;40.10;38.30;;;;;;6181534;23;20001;-77
2022/09/16 09:48:38;;;;;;;2.10;1.13;;;43.90;35.10;;;;;;6181196;23;20017;-75
2022/09/16 09:51:26;;;;;;;1.63;1.25;;;46.30;32.20;;;;;;6176724;23;20120;-76
2022/09/16 09:54:01;;;;;;;1.77;1.10;;;48.30;27.80;;;;;;6164943;23;20084;-83
2022/09/16 09:56:32;;;;;;;2.33;0.80;;;47.90;28.60;;;;;;6181841;23;20027;-80
2022/09/16 09:59:02;;;;;;;1.15;0.90;;;48.40;30.20;;;;;;6155112;23;20472;-80
2022/09/16 10:01:27;;;;;;;1.58;0.68;;;49.40;30.00;;;;;;6181559;23;20024;-76
2022/09/16 10:03:56;;;;;;;3.30;1.13;;;48.10;26.40;;;;;;6181152;23;20606;-80
2022/09/16 10:06:28;;;;;;;1.25;0.95;;;46.40;27.60;;;;;;6181600;23;20012;-80
2022/09/16 10:08:57;;;;;;;1.13;1.00;;;46.70;26.90;;;;;;6154726;23;20021;-80
2022/09/16 10:11:26;;;;;;;1.83;1.08;;;48.20;26.40;;;;;;6181421;23;20075;-80
2022/09/16 10:13:59;;;;;;;1.30;1.10;;;48.60;27.50;;;;;;6154895;23;20055;-77
2022/09/16 10:16:29;;;;;;;1.45;1.00;;;49.20;29.10;;;;;;6181194;23;20005;-83
2022/09/16 10:19:15;;;;;;;1.90;1.10;;;50.40;28.90;;;;;;6181626;23;20005;-81
2022/09/16 10:21:48;;;;;;;2.83;0.50;;;48.40;24.80;;;;;;6181480;23;20010;-81
2022/09/16 10:24:34;;;;;;;1.67;0.80;;;46.50;25.40;;;;;;6180943;23;20005;-81
2022/09/16 10:27:16;;;;;;;2.15;0.50;;;43.80;32.10;;;;;;6181046;23;20072;-79
2022/09/16 10:29:42;;;;;;;1.00;0.57;;;;;;;;;;6181720;23;20444;-81
2022/09/16 10:32:12;;;;;;;2.92;0.90;;;40.20;28.70;;;;;;6181228;23;20081;-81
2022/09/16 10:34:41;;;;;;;1.00;0.63;;;43.20;27.40;;;;;;6181389;23;20013;-81
2022/09/16 10:37:10;;;;;;;1.48;0.90;;;43.70;26.70;;;;;;6181319;23;20005;-77
2022/09/16 10:39:39;;;;;;;1.38;0.57;;;41.30;28.30;;;;;;6181129;23;20059;-78
2022/09/16 10:42:19;;;;;;;0.77;0.50;;;37.40;32.10;;;;;;6181199;23;20009;-78
2022/09/16 10:44:47;;;;;;;1.88;0.68;;;;;;;;;;6181067;23;20013;-79
2022/09/16 10:47:27;;;;;;;1.35;0.52;;;32.80;33.30;;;;;;6154335;23;20012;-79
2022/09/16 10:49:56;;;;;;;3.90;0.93;;;30.80;35.30;;;;;;6181392;23;20333;-79
2022/09/16 10:52:28;;;;;;;1.88;0.82;;;29.30;37.10;;;;;;6181210;23;20016;-80
2022/09/16 10:54:54;;;;;;;3.25;1.00;;;28.40;39.20;;;;;;6180937;23;20001;-79
2022/09/16 10:57:20;;;;;;;;;;;28.50;38.50;;;;;;6181543;23;20079;-79
2022/09/16 10:59:59;;;;;;;4.77;1.07;;;27.00;39.70;;;;;;6181208;23;19904;-81
2022/09/16 11:02:37;;;;;;;2.60;1.17;;;;;;;;;;6180873;23;20032;-81
2022/09/16 11:05:23;;;;;;;4.70;1.52;;;26.00;42.20;;;;;;6181122;23;20023;-79
2022/09/16 11:08:07;;;;;;;3.35;1.42;;;25.50;45.40;;;;;;6180370;23;20005;-79
2022/09/16 11:10:42;;;;;;;5.00;1.52;;;;;;;;;;6181412;23;20013;-80
2022/09/16 11:13:20;;;;;;;3.63;1.27;;;25.10;43.40;;;;;;6181076;23;20005;-79
2022/09/16 11:15:55;;;;;;;3.85;1.60;;;25.30;48.30;;;;;;6180338;23;20025;-77
2022/09/16 11:18:49;;;;;;;6.53;1.77;;;25.60;46.40;;;;;;6181092;23;20052;-78
2022/09/16 11:21:47;;;;;;;1.27;0.77;;;25.50;45.20;;;;;;6180871;23;20401;-76
2022/09/16 11:24:42;;;;;;;2.22;1.35;;;25.50;43.10;;;;;;6154060;23;20015;-78
2022/09/16 11:27:10;;;;;;;2.78;1.02;;;25.70;54.30;;;;;;6181059;23;20040;-74
2022/09/16 11:29:50;;;;;;;1.67;1.15;;;25.90;48.70;;;;;;6180632;23;20009;-73
2022/09/16 11:32:26;;;;;;;1.98;1.48;;;26.40;53.50;;;;;;6181032;23;20009;-73
2022/09/16 11:35:12;;;;;;;2.13;1.10;;;27.60;53.00;;;;;;6180892;23;20036;-73
2022/09/16 11:37:56;;;;;;;2.42;1.67;;;29.20;40.20;;;;;;6180617;23;20076;-74
2022/09/16 11:40:31;;;;;;;2.40;1.40;;;30.70;48.60;;;;;;6180436;23;20008;-74
2022/09/16 11:43:35;;;;;;;2.40;1.08;;;30.40;37.40;;;;;;6180985;23;20008;-73
2022/09/16 11:46:24;;;;;;;3.22;1.20;;;30.30;48.00;;;;;;6179908;23;20020;-73
2022/09/16 11:48:58;;;;;;;2.45;1.40;;;30.60;37.50;;;;;;6180389;23;20144;-74
2022/09/16 11:51:39;;;;;;;1.85;1.30;;;30.80;37.40;;;;;;6181129;23;20005;-72
2022/09/16 11:54:30;;;;;;;4.25;1.23;;;30.30;37.60;;;;;;6180679;23;20009;-73
2022/09/16 11:56:59;;;;;;;1.95;1.30;;;30.10;37.80;;;;;;6180503;23;20017;-74
2022/09/16 11:59:40;;;;;;;2.08;1.50;;;30.40;43.20;;;;;;6179558;23;20008;-73
2022/09/16 12:02:37;;;;;;;1.88;1.02;;;30.50;41.40;;;;;;6180873;23;20005;-74
2022/09/16 12:05:18;;;;;;;2.58;1.17;;;30.30;38.60;;;;;;6180412;23;20009;-74
2022/09/16 12:08:06;;;;;;;7.05;0.95;;;29.40;38.70;;;;;;6180356;23;20101;-74
2022/09/16 12:10:42;;;;;;;2.53;1.30;;;28.70;39.40;;;;;;6180325;23;20000;-74
2022/09/16 12:13:14;;;;;;;2.57;1.37;;;28.30;40.20;;;;;;6180862;23;20005;-74
2022/09/16 12:15:43;;;;;;;2.15;1.17;;;;;;;;;;6179810;23;20043;-73
2022/09/16 12:18:24;;;;;;;3.80;1.25;;;29.90;43.10;;;;;;6180939;23;20005;-73
2022/09/16 12:20:56;;;;;;;5.47;1.08;;;29.90;38.40;;;;;;6179839;23;20019;-74
2022/09/16 12:23:32;;;;;;;3.63;1.30;;;29.70;48.60;;;;;;6180010;23;20087;-74
2022/09/16 12:26:10;;;;;;;2.08;1.15;;;30.00;48.50;;;;;;6180373;23;20013;-74
2022/09/16 12:28:50;;;;;;;2.47;1.30;;;29.20;38.40;;;;;;6179510;23;20024;-75
2022/09/16 12:31:34;;;;;;;3.72;1.02;;;28.20;39.70;;;;;;6180592;23;20393;-75
2022/09/16 12:34:09;;;;;;;1.42;1.15;;;27.60;45.30;;;;;;6180197;23;20024;-76
2022/09/16 12:36:38;;;;;;;2.95;1.30;;;27.20;41.20;;;;;;6179718;23;20020;-74
2022/09/16 12:39:04;;;;;;;3.17;1.58;;;;;;;;;;6180220;23;20570;-77
2022/09/16 12:41:54;;;;;;;2.30;1.50;;;26.80;42.20;;;;;;6180284;23;20028;-79
2022/09/16 12:44:53;;;;;;;1.75;1.20;;;27.10;53.40;;;;;;6153202;23;20005;-80
2022/09/16 12:47:51;;;;;;;2.63;1.13;;;27.20;42.10;;;;;;6180337;23;20015;-76
2022/09/16 12:50:45;;;;;;;4.25;1.40;;;26.90;46.90;;;;;;6179430;23;20079;-75
2022/09/16 12:53:11;;;;;;;2.33;1.45;;;;;;;;;;6179954;23;20553;-76
2022/09/16 12:56:01;;;;;;;1.70;1.08;;;26.90;41.90;;;;;;6180075;23;20076;-75
2022/09/16 12:58:48;;;;;;;4.85;1.33;;;26.70;42.20;;;;;;6180440;23;20016;-75
2022/09/16 13:01:25;;;;;;;1.63;1.02;;;26.40;42.60;;;;;;6180096;23;20005;-75
2022/09/16 13:04:00;;;;;;;1.30;1.00;;;26.30;42.30;;;;;;6180427;23;20384;-75
2022/09/16 13:06:33;;;;;;;2.90;1.60;;;26.10;53.40;;;;;;6179662;23;20483;-74
2022/09/16 13:09:24;;;;;;;1.88;1.38;;;26.00;42.80;;;;;;6179957;23;20017;-75
2022/09/16 13:11:58;;;;;;;5.70;1.50;;;26.40;53.50;;;;;;6180184;23;20005;-76
2022/09/16 13:14:47;;;;;;;3.65;1.25;;;26.70;43.00;;;;;;6179271;23;20581;-76
2022/09/16 13:17:13;;;;;;;3.03;1.20;;;;;;;;;;6152720;23;20005;-76
2022/09/16 13:19:51;;;;;;;1.95;1.05;;;27.00;45.10;;;;;;6179872;23;20503;-80
2022/09/16 13:22:17;;;;;;;1.73;1.20;;;;;;;;;;6180107;23;20002;-77
2022/09/16 13:24:49;;;;;;;2.22;1.15;;;27.90;41.40;;;;;;6179696;23;20001;-77
2022/09/16 13:27:33;;;;;;;1.75;1.00;;;28.70;51.30;;;;;;6179936;23;20027;-76
2022/09/16 13:30:10;;;;;;;1.25;0.85;;;28.90;50.50;;;;;;6179991;23;20016;-79
2022/09/16 13:32:43;;;;;;;1.80;0.88;;;29.00;44.20;;;;;;6153972;23;20005;-75
2022/09/16 13:35:17;;;;;;;4.35;1.00;;;27.90;41.50;;;;;;6180222;23;20009;-76
2022/09/16 13:37:44;;;;;;;1.20;0.90;;;27.60;41.00;;;;;;6182141;23;20079;-76
2022/09/16 13:40:24;;;;;;;2.72;1.20;;;27.10;52.70;;;;;;6181763;23;20462;-77
2022/09/16 13:42:50;;;;;;;1.83;0.90;;;26.90;52.80;;;;;;6181344;23;20009;-74
2022/09/16 13:45:33;;;;;;;1.77;1.15;;;26.70;43.10;;;;;;6181455;23;20085;-73